Eems Carrier — PFHD — position and weather

sailwx.info

Track history (hours):
 
Tides and Currents Weather Stations Pressure Air Temp Water Temp Dewpoint Dewpoint Depression Visibility Wind Speed Wind Dir Waves Ship Positions

Eems Carrier

Last reported at 2017-Nov-24 11:54 UTC. Time now 2017-Nov-25 02:11 UTC.
Position N 59°36' E 023°11'.

Length 84 m; draft 3.2 m.

Type: Cargo ship. MMSI: 245257000.

Date/timePositionNaut miles runAvg speedWind from/ knotsBaromVisibWave heightAir tempDewpointWater temp
2017-Nov-24 11:54N 59°36' E 023°11'3 9.0
2017-Nov-24 11:30N 59°37' E 023°17'5 8.9
2017-Nov-24 10:58N 59°38' E 023°27'4 9.0
2017-Nov-24 10:30N 59°39' E 023°34'5 8.9
2017-Nov-24 10:00N 59°40' E 023°43'5 8.9
2017-Nov-24 09:29N 59°42' E 023°52'14 9.1
2017-Nov-24 07:57N 59°46' E 024°18'4 8.3
2017-Nov-24 07:30N 59°47' E 024°25'4 8.3
2017-Nov-24 07:00N 59°48' E 024°33'4 8.2
2017-Nov-24 06:30N 59°49' E 024°41'4 8.0
2017-Nov-24 06:01N 59°50' E 024°49'4 7.7
2017-Nov-24 05:30N 59°50' E 024°56'4 7.8
2017-Nov-24 05:01N 59°51' E 025°04'4 8.1
2017-Nov-24 04:31N 59°52' E 025°12'32 8.3
2017-Nov-24 00:37N 60°03' E 026°12'1 6.9
2017-Nov-24 00:30N 60°04' E 026°13'3 6.9
2017-Nov-24 00:00N 60°07' E 026°17'3 5.7
2017-Nov-23 23:30N 60°09' E 026°20'3 6.5
2017-Nov-23 23:01N 60°12' E 026°23'4 7.0
2017-Nov-23 22:30N 60°15' E 026°26'4 7.2
2017-Nov-23 22:00N 60°18' E 026°30'4 8.9
2017-Nov-23 21:31N 60°20' E 026°38'4 8.5
2017-Nov-23 21:01N 60°23' E 026°45'4 8.4
2017-Nov-23 20:31N 60°24' E 026°53'4 8.9
2017-Nov-23 20:01N 60°27' E 026°59'4 8.5
2017-Nov-23 19:30N 60°29' E 027°07'3 0.3
2017-Nov-23 10:19N 60°32' E 027°10'0 0.0
2017-Nov-23 09:49N 60°32' E 027°10'0 0.0
2017-Nov-23 09:19N 60°32' E 027°10'0 0.0
2017-Nov-23 08:43N 60°32' E 027°10'0 0.0
2017-Nov-23 08:25N 60°32' E 027°10'0 0.0
2017-Nov-23 07:55N 60°32' E 027°10'0 0.0
2017-Nov-23 07:28N 60°32' E 027°10'0 0.1
2017-Nov-23 06:58N 60°32' E 027°10'0 0.0
2017-Nov-23 04:49N 60°32' E 027°10'0 0.0
2017-Nov-23 04:25N 60°32' E 027°10'0 0.0
2017-Nov-23 02:19N 60°32' E 027°10'0 0.0
2017-Nov-23 01:07N 60°32' E 027°10'0 0.0
2017-Nov-23 00:52N 60°32' E 027°10'0 0.0
2017-Nov-22 19:43N 60°32' E 027°10'  
2017-Nov-20 00:30N 54°24' E 018°39'0 0.0
2017-Nov-20 00:00N 54°24' E 018°39'0 0.0
2017-Nov-19 23:30N 54°24' E 018°39'0 0.0
2017-Nov-19 23:00N 54°24' E 018°39'0 0.0
2017-Nov-19 22:30N 54°24' E 018°39'0 0.0
2017-Nov-19 22:00N 54°24' E 018°39'0 0.0
2017-Nov-19 21:30N 54°24' E 018°39'0 0.0
2017-Nov-19 21:00N 54°24' E 018°39'0 0.0
2017-Nov-19 20:30N 54°24' E 018°39'0 0.0
2017-Nov-19 20:00N 54°24' E 018°39'0 0.0
2017-Nov-19 19:30N 54°24' E 018°39'0 0.0
2017-Nov-19 19:00N 54°24' E 018°39'0 0.0
2017-Nov-19 18:30N 54°24' E 018°39'0 0.0
2017-Nov-19 18:00N 54°24' E 018°39'0 0.0
2017-Nov-19 17:30N 54°24' E 018°39'0 0.0
2017-Nov-19 17:00N 54°24' E 018°39'0 0.0
2017-Nov-19 16:30N 54°24' E 018°39'0 0.0
2017-Nov-19 16:00N 54°24' E 018°39'0 0.0
2017-Nov-19 15:30N 54°24' E 018°39'0 0.0
2017-Nov-19 15:00N 54°24' E 018°39'0 0.0
2017-Nov-19 14:30N 54°24' E 018°39'0 0.0
2017-Nov-19 14:00N 54°24' E 018°39'0 0.0
2017-Nov-19 13:30N 54°24' E 018°39'0 0.0
2017-Nov-19 13:00N 54°24' E 018°39'0 0.0
2017-Nov-19 12:30N 54°24' E 018°39'0 0.0
2017-Nov-19 12:00N 54°24' E 018°39'0 0.0
2017-Nov-19 11:30N 54°24' E 018°39'0 0.0
2017-Nov-19 11:00N 54°24' E 018°39'0 0.0
2017-Nov-19 10:30N 54°24' E 018°39'0 0.0
2017-Nov-19 10:00N 54°24' E 018°39'0 0.0
2017-Nov-19 09:30N 54°24' E 018°39'0 0.0
2017-Nov-19 09:00N 54°24' E 018°39'0 0.0
2017-Nov-19 08:30N 54°24' E 018°39'0 0.0
2017-Nov-19 08:00N 54°24' E 018°39'0 0.0
2017-Nov-19 07:29N 54°24' E 018°39'0 0.0
2017-Nov-19 06:59N 54°24' E 018°39'0 0.0
2017-Nov-19 06:29N 54°24' E 018°39'0 0.0
2017-Nov-19 05:59N 54°24' E 018°39'0 0.0
2017-Nov-19 05:26N 54°24' E 018°39'0 0.0
2017-Nov-19 04:59N 54°24' E 018°39'0 0.0
2017-Nov-19 04:29N 54°24' E 018°39'0 0.0
2017-Nov-19 03:59N 54°24' E 018°39'0 0.0
2017-Nov-19 03:29N 54°24' E 018°39'0 0.0
2017-Nov-19 02:59N 54°24' E 018°39'0 0.0
2017-Nov-19 02:29N 54°24' E 018°39'0 0.0
2017-Nov-19 01:59N 54°24' E 018°39'0 0.0
2017-Nov-19 01:29N 54°24' E 018°39'0 0.0
2017-Nov-19 00:59N 54°24' E 018°39'0 0.0
2017-Nov-19 00:29N 54°24' E 018°39'0 0.0
2017-Nov-18 23:59N 54°24' E 018°39'0 0.0
2017-Nov-18 23:29N 54°24' E 018°39'0 0.0
2017-Nov-18 22:59N 54°24' E 018°39'0 0.0
2017-Nov-18 22:29N 54°24' E 018°39'0 0.0
2017-Nov-18 21:59N 54°24' E 018°39'0 0.0
2017-Nov-18 21:29N 54°24' E 018°39'0 0.0
2017-Nov-18 20:59N 54°24' E 018°39'0 0.0
2017-Nov-18 20:29N 54°24' E 018°39'0 0.0
2017-Nov-18 19:59N 54°24' E 018°39'0 0.0
2017-Nov-18 19:29N 54°24' E 018°39'0 0.0
2017-Nov-18 18:59N 54°24' E 018°39'0 0.0
2017-Nov-18 18:29N 54°24' E 018°39'0 0.0
2017-Nov-18 17:59N 54°24' E 018°39'0 0.0
2017-Nov-18 17:29N 54°24' E 018°39'0 0.0
2017-Nov-18 16:59N 54°24' E 018°39'0 0.0
2017-Nov-18 16:29N 54°24' E 018°39'0 0.0
2017-Nov-18 15:59N 54°24' E 018°39'0 0.0
2017-Nov-18 15:29N 54°24' E 018°39'0 0.0
2017-Nov-18 14:59N 54°24' E 018°39'0 0.0
2017-Nov-18 14:29N 54°24' E 018°39'0 0.0
2017-Nov-18 13:59N 54°24' E 018°39'0 0.0
2017-Nov-18 13:29N 54°24' E 018°39'0 0.0
2017-Nov-18 12:59N 54°24' E 018°39'0 0.0
2017-Nov-18 12:29N 54°24' E 018°39'0 0.0
2017-Nov-18 11:59N 54°24' E 018°39'0 0.0
2017-Nov-18 11:26N 54°24' E 018°39'0 0.0
2017-Nov-18 10:59N 54°24' E 018°39'0 0.0
2017-Nov-18 10:29N 54°24' E 018°39'0 0.0
2017-Nov-18 09:59N 54°24' E 018°39'0 0.0
2017-Nov-18 09:23N 54°24' E 018°39'0 0.0
2017-Nov-18 08:59N 54°24' E 018°39'0 0.0
2017-Nov-18 08:29N 54°24' E 018°39'0 0.0
2017-Nov-18 07:59N 54°24' E 018°39'0 0.0
2017-Nov-18 07:29N 54°24' E 018°39'0 0.0
2017-Nov-18 06:59N 54°24' E 018°39'0 0.0
2017-Nov-18 06:29N 54°24' E 018°39'0 0.0
2017-Nov-18 05:59N 54°24' E 018°39'0 0.0
2017-Nov-18 05:29N 54°24' E 018°39'0 0.0
2017-Nov-18 04:59N 54°24' E 018°39'0 0.0
2017-Nov-18 04:29N 54°24' E 018°39'0 0.0
2017-Nov-18 03:59N 54°24' E 018°39'0 0.0
2017-Nov-18 03:29N 54°24' E 018°39'0 0.0
2017-Nov-18 02:59N 54°24' E 018°39'0 0.0
2017-Nov-18 02:29N 54°24' E 018°39'0 0.0
2017-Nov-18 01:59N 54°24' E 018°39'0 0.0
2017-Nov-18 01:29N 54°24' E 018°39'0 0.0
2017-Nov-18 00:59N 54°24' E 018°39'0 0.0
2017-Nov-18 00:29N 54°24' E 018°39'0 0.0
2017-Nov-17 23:59N 54°24' E 018°39'0 0.0
2017-Nov-17 23:29N 54°24' E 018°39'0 0.0
2017-Nov-17 22:59N 54°24' E 018°39'0 0.0
2017-Nov-17 22:29N 54°24' E 018°39'0 0.0
2017-Nov-17 21:59N 54°24' E 018°39'0 0.0
2017-Nov-17 21:29N 54°24' E 018°39'0 0.0
2017-Nov-17 20:59N 54°24' E 018°39'0 0.0
2017-Nov-17 20:26N 54°24' E 018°39'0 0.0
2017-Nov-17 19:59N 54°24' E 018°39'0 0.0
2017-Nov-17 19:28N 54°24' E 018°39'0 0.0
2017-Nov-17 18:58N 54°24' E 018°39'0 0.0
2017-Nov-17 18:28N 54°24' E 018°39'0 0.0
2017-Nov-17 17:58N 54°24' E 018°39'0 0.0
2017-Nov-17 17:28N 54°24' E 018°39'0 0.0
2017-Nov-17 16:58N 54°24' E 018°39'0 0.0
2017-Nov-17 16:28N 54°24' E 018°39'0 0.0
2017-Nov-17 15:58N 54°24' E 018°39'0 0.0
2017-Nov-17 15:28N 54°24' E 018°39'0 0.0
2017-Nov-17 14:58N 54°24' E 018°39'0 0.0
2017-Nov-17 14:28N 54°24' E 018°39'0 0.0
2017-Nov-17 13:58N 54°24' E 018°39'0 0.0
2017-Nov-17 13:28N 54°24' E 018°39'0 0.0
2017-Nov-17 12:58N 54°24' E 018°39'0 0.0
2017-Nov-17 12:28N 54°24' E 018°39'0 0.0
2017-Nov-17 11:58N 54°24' E 018°39'0 0.0
2017-Nov-17 11:28N 54°24' E 018°39'0 0.0
2017-Nov-17 10:58N 54°24' E 018°39'0 0.0
2017-Nov-17 10:28N 54°24' E 018°39'0 0.0
2017-Nov-17 09:58N 54°24' E 018°39'0 0.0
2017-Nov-17 09:28N 54°24' E 018°39'0 0.0
2017-Nov-17 08:58N 54°24' E 018°39'0 0.0
2017-Nov-17 08:28N 54°24' E 018°39'0 0.0
2017-Nov-17 07:58N 54°24' E 018°39'211 6.7
2017-Nov-16 00:16N 54°38' E 012°36'2 8.9
2017-Nov-16 00:00N 54°37' E 012°33'4 8.9
2017-Nov-15 23:31N 54°34' E 012°26'5 9.1
2017-Nov-15 23:00N 54°32' E 012°20'4 9.1
2017-Nov-15 22:30N 54°28' E 012°15'5 9.2
2017-Nov-15 22:01N 54°25' E 012°10'16 9.2
2017-Nov-15 20:17N 54°26' E 011°43'3 9.9
2017-Nov-15 19:58N 54°27' E 011°38'5 9.9
2017-Nov-15 19:30N 54°29' E 011°31'5 9.9
2017-Nov-15 19:00N 54°31' E 011°23'5 9.6
2017-Nov-15 18:31N 54°33' E 011°16'5 9.3
2017-Nov-15 18:01N 54°35' E 011°08'5 9.8
2017-Nov-15 17:30N 54°35' E 010°60'5 9.7
2017-Nov-15 17:00N 54°34' E 010°51'5 9.6
2017-Nov-15 16:31N 54°34' E 010°43'5 9.8
2017-Nov-15 16:00N 54°33' E 010°34'29 6.4
2017-Nov-15 11:24N 54°22' E 009°48'3 8.4
2017-Nov-15 11:00N 54°20' E 009°43'4 7.7
2017-Nov-15 10:31N 54°17' E 009°39'4 7.3
2017-Nov-15 10:01N 54°14' E 009°36'4 8.1
2017-Nov-15 09:31N 54°11' E 009°31'4 8.4
2017-Nov-15 09:01N 54°10' E 009°24'4 7.7
2017-Nov-15 08:27N 54°06' E 009°20'4 8.3
2017-Nov-15 08:00N 54°03' E 009°18'4 8.1
2017-Nov-15 07:30N 53°59' E 009°16'3 5.5
2017-Nov-15 06:58N 53°56' E 009°13'4 7.0
2017-Nov-15 06:25N 53°54' E 009°09'0 0.1
2017-Nov-15 06:01N 53°54' E 009°09'0 0.3
2017-Nov-15 05:30N 53°54' E 009°08'2 3.3
2017-Nov-15 05:00N 53°53' E 009°06'3 5.7
2017-Nov-15 04:30N 53°52' E 009°02'3 6.2
2017-Nov-15 04:01N 53°51' E 008°57'3 6.5
2017-Nov-15 03:31N 53°50' E 008°51'3 5.5
2017-Nov-15 03:00N 53°51' E 008°47'3 5.2
2017-Nov-15 02:30N 53°52' E 008°43'2 4.8
2017-Nov-15 02:00N 53°54' E 008°41'2 5.0
2017-Nov-15 01:30N 53°56' E 008°39'3 5.6
2017-Nov-15 01:00N 53°58' E 008°35'4 7.5
2017-Nov-15 00:30N 53°59' E 008°28'4 7.5
2017-Nov-15 00:00N 53°59' E 008°22'4 8.2
2017-Nov-14 23:30N 53°59' E 008°15'4 8.2
2017-Nov-14 22:58N 53°59' E 008°08'10 8.6
2017-Nov-14 21:52N 53°57' E 007°52'  
Track history (hours):
 
Tides and Currents Weather Stations Pressure Air Temp Water Temp Dewpoint Dewpoint Depression Visibility Wind Speed Wind Dir Waves Ship Positions

Eems Carrier

Last reported at 2017-Nov-24 11:54 UTC. Time now 2017-Nov-25 02:11 UTC.
Position N 59°36' E 023°11'.

Length 84 m; draft 3.2 m.

Type: Cargo ship. MMSI: 245257000.

Date/timePositionNaut miles runAvg speedWind from/ knotsBaromVisibWave heightAir tempDewpointWater temp
2017-Nov-24 11:54N 59°36' E 023°11'3 9.0
2017-Nov-24 11:30N 59°37' E 023°17'5 8.9
2017-Nov-24 10:58N 59°38' E 023°27'4 9.0
2017-Nov-24 10:30N 59°39' E 023°34'5 8.9
2017-Nov-24 10:00N 59°40' E 023°43'5 8.9
2017-Nov-24 09:29N 59°42' E 023°52'14 9.1
2017-Nov-24 07:57N 59°46' E 024°18'4 8.3
2017-Nov-24 07:30N 59°47' E 024°25'4 8.3
2017-Nov-24 07:00N 59°48' E 024°33'4 8.2
2017-Nov-24 06:30N 59°49' E 024°41'4 8.0
2017-Nov-24 06:01N 59°50' E 024°49'4 7.7
2017-Nov-24 05:30N 59°50' E 024°56'4 7.8
2017-Nov-24 05:01N 59°51' E 025°04'4 8.1
2017-Nov-24 04:31N 59°52' E 025°12'32 8.3
2017-Nov-24 00:37N 60°03' E 026°12'1 6.9
2017-Nov-24 00:30N 60°04' E 026°13'3 6.9
2017-Nov-24 00:00N 60°07' E 026°17'3 5.7
2017-Nov-23 23:30N 60°09' E 026°20'3 6.5
2017-Nov-23 23:01N 60°12' E 026°23'4 7.0
2017-Nov-23 22:30N 60°15' E 026°26'4 7.2
2017-Nov-23 22:00N 60°18' E 026°30'4 8.9
2017-Nov-23 21:31N 60°20' E 026°38'4 8.5
2017-Nov-23 21:01N 60°23' E 026°45'4 8.4
2017-Nov-23 20:31N 60°24' E 026°53'4 8.9
2017-Nov-23 20:01N 60°27' E 026°59'4 8.5
2017-Nov-23 19:30N 60°29' E 027°07'3 0.3
2017-Nov-23 10:19N 60°32' E 027°10'0 0.0
2017-Nov-23 09:49N 60°32' E 027°10'0 0.0
2017-Nov-23 09:19N 60°32' E 027°10'0 0.0
2017-Nov-23 08:43N 60°32' E 027°10'0 0.0
2017-Nov-23 08:25N 60°32' E 027°10'0 0.0
2017-Nov-23 07:55N 60°32' E 027°10'0 0.0
2017-Nov-23 07:28N 60°32' E 027°10'0 0.1
2017-Nov-23 06:58N 60°32' E 027°10'0 0.0
2017-Nov-23 04:49N 60°32' E 027°10'0 0.0
2017-Nov-23 04:25N 60°32' E 027°10'0 0.0
2017-Nov-23 02:19N 60°32' E 027°10'0 0.0
2017-Nov-23 01:07N 60°32' E 027°10'0 0.0
2017-Nov-23 00:52N 60°32' E 027°10'0 0.0
2017-Nov-22 19:43N 60°32' E 027°10'  
2017-Nov-20 00:30N 54°24' E 018°39'0 0.0
2017-Nov-20 00:00N 54°24' E 018°39'0 0.0
2017-Nov-19 23:30N 54°24' E 018°39'0 0.0
2017-Nov-19 23:00N 54°24' E 018°39'0 0.0
2017-Nov-19 22:30N 54°24' E 018°39'0 0.0
2017-Nov-19 22:00N 54°24' E 018°39'0 0.0
2017-Nov-19 21:30N 54°24' E 018°39'0 0.0
2017-Nov-19 21:00N 54°24' E 018°39'0 0.0
2017-Nov-19 20:30N 54°24' E 018°39'0 0.0
2017-Nov-19 20:00N 54°24' E 018°39'0 0.0
2017-Nov-19 19:30N 54°24' E 018°39'0 0.0
2017-Nov-19 19:00N 54°24' E 018°39'0 0.0
2017-Nov-19 18:30N 54°24' E 018°39'0 0.0
2017-Nov-19 18:00N 54°24' E 018°39'0 0.0
2017-Nov-19 17:30N 54°24' E 018°39'0 0.0
2017-Nov-19 17:00N 54°24' E 018°39'0 0.0
2017-Nov-19 16:30N 54°24' E 018°39'0 0.0
2017-Nov-19 16:00N 54°24' E 018°39'0 0.0
2017-Nov-19 15:30N 54°24' E 018°39'0 0.0
2017-Nov-19 15:00N 54°24' E 018°39'0 0.0
2017-Nov-19 14:30N 54°24' E 018°39'0 0.0
2017-Nov-19 14:00N 54°24' E 018°39'0 0.0
2017-Nov-19 13:30N 54°24' E 018°39'0 0.0
2017-Nov-19 13:00N 54°24' E 018°39'0 0.0
2017-Nov-19 12:30N 54°24' E 018°39'0 0.0
2017-Nov-19 12:00N 54°24' E 018°39'0 0.0
2017-Nov-19 11:30N 54°24' E 018°39'0 0.0
2017-Nov-19 11:00N 54°24' E 018°39'0 0.0
2017-Nov-19 10:30N 54°24' E 018°39'0 0.0
2017-Nov-19 10:00N 54°24' E 018°39'0 0.0
2017-Nov-19 09:30N 54°24' E 018°39'0 0.0
2017-Nov-19 09:00N 54°24' E 018°39'0 0.0
2017-Nov-19 08:30N 54°24' E 018°39'0 0.0
2017-Nov-19 08:00N 54°24' E 018°39'0 0.0
2017-Nov-19 07:29N 54°24' E 018°39'0 0.0
2017-Nov-19 06:59N 54°24' E 018°39'0 0.0
2017-Nov-19 06:29N 54°24' E 018°39'0 0.0
2017-Nov-19 05:59N 54°24' E 018°39'0 0.0
2017-Nov-19 05:26N 54°24' E 018°39'0 0.0
2017-Nov-19 04:59N 54°24' E 018°39'0 0.0
2017-Nov-19 04:29N 54°24' E 018°39'0 0.0
2017-Nov-19 03:59N 54°24' E 018°39'0 0.0
2017-Nov-19 03:29N 54°24' E 018°39'0 0.0
2017-Nov-19 02:59N 54°24' E 018°39'0 0.0
2017-Nov-19 02:29N 54°24' E 018°39'0 0.0
2017-Nov-19 01:59N 54°24' E 018°39'0 0.0
2017-Nov-19 01:29N 54°24' E 018°39'0 0.0
2017-Nov-19 00:59N 54°24' E 018°39'0 0.0
2017-Nov-19 00:29N 54°24' E 018°39'0 0.0
2017-Nov-18 23:59N 54°24' E 018°39'0 0.0
2017-Nov-18 23:29N 54°24' E 018°39'0 0.0
2017-Nov-18 22:59N 54°24' E 018°39'0 0.0
2017-Nov-18 22:29N 54°24' E 018°39'0 0.0
2017-Nov-18 21:59N 54°24' E 018°39'0 0.0
2017-Nov-18 21:29N 54°24' E 018°39'0 0.0
2017-Nov-18 20:59N 54°24' E 018°39'0 0.0
2017-Nov-18 20:29N 54°24' E 018°39'0 0.0
2017-Nov-18 19:59N 54°24' E 018°39'0 0.0
2017-Nov-18 19:29N 54°24' E 018°39'0 0.0
2017-Nov-18 18:59N 54°24' E 018°39'0 0.0
2017-Nov-18 18:29N 54°24' E 018°39'0 0.0
2017-Nov-18 17:59N 54°24' E 018°39'0 0.0
2017-Nov-18 17:29N 54°24' E 018°39'0 0.0
2017-Nov-18 16:59N 54°24' E 018°39'0 0.0
2017-Nov-18 16:29N 54°24' E 018°39'0 0.0
2017-Nov-18 15:59N 54°24' E 018°39'0 0.0
2017-Nov-18 15:29N 54°24' E 018°39'0 0.0
2017-Nov-18 14:59N 54°24' E 018°39'0 0.0
2017-Nov-18 14:29N 54°24' E 018°39'0 0.0
2017-Nov-18 13:59N 54°24' E 018°39'0 0.0
2017-Nov-18 13:29N 54°24' E 018°39'0 0.0
2017-Nov-18 12:59N 54°24' E 018°39'0 0.0
2017-Nov-18 12:29N 54°24' E 018°39'0 0.0
2017-Nov-18 11:59N 54°24' E 018°39'0 0.0
2017-Nov-18 11:26N 54°24' E 018°39'0 0.0
2017-Nov-18 10:59N 54°24' E 018°39'0 0.0
2017-Nov-18 10:29N 54°24' E 018°39'0 0.0
2017-Nov-18 09:59N 54°24' E 018°39'0 0.0
2017-Nov-18 09:23N 54°24' E 018°39'0 0.0
2017-Nov-18 08:59N 54°24' E 018°39'0 0.0
2017-Nov-18 08:29N 54°24' E 018°39'0 0.0
2017-Nov-18 07:59N 54°24' E 018°39'0 0.0
2017-Nov-18 07:29N 54°24' E 018°39'0 0.0
2017-Nov-18 06:59N 54°24' E 018°39'0 0.0
2017-Nov-18 06:29N 54°24' E 018°39'0 0.0
2017-Nov-18 05:59N 54°24' E 018°39'0 0.0
2017-Nov-18 05:29N 54°24' E 018°39'0 0.0
2017-Nov-18 04:59N 54°24' E 018°39'0 0.0
2017-Nov-18 04:29N 54°24' E 018°39'0 0.0
2017-Nov-18 03:59N 54°24' E 018°39'0 0.0
2017-Nov-18 03:29N 54°24' E 018°39'0 0.0
2017-Nov-18 02:59N 54°24' E 018°39'0 0.0
2017-Nov-18 02:29N 54°24' E 018°39'0 0.0
2017-Nov-18 01:59N 54°24' E 018°39'0 0.0
2017-Nov-18 01:29N 54°24' E 018°39'0 0.0
2017-Nov-18 00:59N 54°24' E 018°39'0 0.0
2017-Nov-18 00:29N 54°24' E 018°39'0 0.0
2017-Nov-17 23:59N 54°24' E 018°39'0 0.0
2017-Nov-17 23:29N 54°24' E 018°39'0 0.0
2017-Nov-17 22:59N 54°24' E 018°39'0 0.0
2017-Nov-17 22:29N 54°24' E 018°39'0 0.0
2017-Nov-17 21:59N 54°24' E 018°39'0 0.0
2017-Nov-17 21:29N 54°24' E 018°39'0 0.0
2017-Nov-17 20:59N 54°24' E 018°39'0 0.0
2017-Nov-17 20:26N 54°24' E 018°39'0 0.0
2017-Nov-17 19:59N 54°24' E 018°39'0 0.0
2017-Nov-17 19:28N 54°24' E 018°39'0 0.0
2017-Nov-17 18:58N 54°24' E 018°39'0 0.0
2017-Nov-17 18:28N 54°24' E 018°39'0 0.0
2017-Nov-17 17:58N 54°24' E 018°39'0 0.0
2017-Nov-17 17:28N 54°24' E 018°39'0 0.0
2017-Nov-17 16:58N 54°24' E 018°39'0 0.0
2017-Nov-17 16:28N 54°24' E 018°39'0 0.0
2017-Nov-17 15:58N 54°24' E 018°39'0 0.0
2017-Nov-17 15:28N 54°24' E 018°39'0 0.0
2017-Nov-17 14:58N 54°24' E 018°39'0 0.0
2017-Nov-17 14:28N 54°24' E 018°39'0 0.0
2017-Nov-17 13:58N 54°24' E 018°39'0 0.0
2017-Nov-17 13:28N 54°24' E 018°39'0 0.0
2017-Nov-17 12:58N 54°24' E 018°39'0 0.0
2017-Nov-17 12:28N 54°24' E 018°39'0 0.0
2017-Nov-17 11:58N 54°24' E 018°39'0 0.0
2017-Nov-17 11:28N 54°24' E 018°39'0 0.0
2017-Nov-17 10:58N 54°24' E 018°39'0 0.0
2017-Nov-17 10:28N 54°24' E 018°39'0 0.0
2017-Nov-17 09:58N 54°24' E 018°39'0 0.0
2017-Nov-17 09:28N 54°24' E 018°39'0 0.0
2017-Nov-17 08:58N 54°24' E 018°39'0 0.0
2017-Nov-17 08:28N 54°24' E 018°39'0 0.0
2017-Nov-17 07:58N 54°24' E 018°39'211 6.7
2017-Nov-16 00:16N 54°38' E 012°36'2 8.9
2017-Nov-16 00:00N 54°37' E 012°33'4 8.9
2017-Nov-15 23:31N 54°34' E 012°26'5 9.1
2017-Nov-15 23:00N 54°32' E 012°20'4 9.1
2017-Nov-15 22:30N 54°28' E 012°15'5 9.2
2017-Nov-15 22:01N 54°25' E 012°10'16 9.2
2017-Nov-15 20:17N 54°26' E 011°43'3 9.9
2017-Nov-15 19:58N 54°27' E 011°38'5 9.9
2017-Nov-15 19:30N 54°29' E 011°31'5 9.9
2017-Nov-15 19:00N 54°31' E 011°23'5 9.6
2017-Nov-15 18:31N 54°33' E 011°16'5 9.3
2017-Nov-15 18:01N 54°35' E 011°08'5 9.8
2017-Nov-15 17:30N 54°35' E 010°60'5 9.7
2017-Nov-15 17:00N 54°34' E 010°51'5 9.6
2017-Nov-15 16:31N 54°34' E 010°43'5 9.8
2017-Nov-15 16:00N 54°33' E 010°34'29 6.4
2017-Nov-15 11:24N 54°22' E 009°48'3 8.4
2017-Nov-15 11:00N 54°20' E 009°43'4 7.7
2017-Nov-15 10:31N 54°17' E 009°39'4 7.3
2017-Nov-15 10:01N 54°14' E 009°36'4 8.1
2017-Nov-15 09:31N 54°11' E 009°31'4 8.4
2017-Nov-15 09:01N 54°10' E 009°24'4 7.7
2017-Nov-15 08:27N 54°06' E 009°20'4 8.3
2017-Nov-15 08:00N 54°03' E 009°18'4 8.1
2017-Nov-15 07:30N 53°59' E 009°16'3 5.5
2017-Nov-15 06:58N 53°56' E 009°13'4 7.0
2017-Nov-15 06:25N 53°54' E 009°09'0 0.1
2017-Nov-15 06:01N 53°54' E 009°09'0 0.3
2017-Nov-15 05:30N 53°54' E 009°08'2 3.3
2017-Nov-15 05:00N 53°53' E 009°06'3 5.7
2017-Nov-15 04:30N 53°52' E 009°02'3 6.2
2017-Nov-15 04:01N 53°51' E 008°57'3 6.5
2017-Nov-15 03:31N 53°50' E 008°51'3 5.5
2017-Nov-15 03:00N 53°51' E 008°47'3 5.2
2017-Nov-15 02:30N 53°52' E 008°43'2 4.8
2017-Nov-15 02:00N 53°54' E 008°41'2 5.0
2017-Nov-15 01:30N 53°56' E 008°39'3 5.6
2017-Nov-15 01:00N 53°58' E 008°35'4 7.5
2017-Nov-15 00:30N 53°59' E 008°28'4 7.5
2017-Nov-15 00:00N 53°59' E 008°22'4 8.2
2017-Nov-14 23:30N 53°59' E 008°15'4 8.2
2017-Nov-14 22:58N 53°59' E 008°08'10 8.6
2017-Nov-14 21:52N 53°57' E 007°52'  

Dump ship's entire track history